Hlavní strana
METAR-TAF:

METAR-TAF

Letiště :

Georgetown, Jižní Karolína, Spojené státy americké

zeměpisná šířka: 33-18-41N, zeměpisná délka: 079-19-13W, výška: 12 m

Aktuální stav počasí

Zpráva byla vytvořena před 30 minutami, v 02:35 UTC
Bezvětří
Teplota 22°C
Vlhkost vzduchu 94%
Tlak 1019 hPa
Viditelnost: 16.1 km
Polojasno ve výšce 1300 ft
Polojasno ve výšce 2100 ft
Polojasno ve výšce 8500 ft

METAR: KGGE 300235Z AUTO 00000KT 10SM SCT013 SCT021 SCT085 22/21 A3008 RMK AO2

Čas: 23:05 (03:05 UTC)


TAF: chybějící

Stav a předpovědi počasí z více než 4 000 letišť (zprávy METAR a TAF).

Červené a žluté tečky na mapě představují dostupné meteorologické stanice.

Když kurzor umístíte na tečku, zobrazí se název stanice.

Pak kliknutím zobrazíte stav a předpověď počasí.

Chcete-li změnit mapu, kliknutím na zelené tlačítko se znaménkem +mapu přiblížíte, kliknutím na zelené tlačítko se znaménkem – mapu oddálíte a kliknutím na zelené šipky přejdete na sousední mapy.


METAR-TAF: